createdAt,value
2022-08-10T00:00:15.790Z,61.48
2022-08-10T00:03:17.687Z,62.12
2022-08-10T00:06:19.577Z,62.43
2022-08-10T00:09:23.907Z,62.38
2022-08-10T00:12:53.388Z,62.38
2022-08-10T00:15:54.108Z,61.95
2022-08-10T00:18:56.661Z,62.52
2022-08-10T00:21:58.764Z,63.35
2022-08-10T00:25:00.896Z,63.83
2022-08-10T00:28:04.296Z,63.17
2022-08-10T00:31:07.322Z,64.08
2022-08-10T00:34:09.231Z,63.18
2022-08-10T00:37:11.127Z,63.14
2022-08-10T00:40:13.654Z,64.04
2022-08-10T00:43:15.620Z,63.74
2022-08-10T00:46:25.675Z,65.06
2022-08-10T00:49:28.715Z,63.76
2022-08-10T00:52:31.519Z,63.69
2022-08-10T00:55:33.957Z,64.19
2022-08-10T00:58:55.777Z,64.12
2022-08-10T01:02:09.045Z,64.40
2022-08-10T01:05:19.939Z,64.57
2022-08-10T01:08:30.903Z,65.36
2022-08-10T01:12:38.673Z,65.22
2022-08-10T01:15:30.859Z,65.90
2022-08-10T01:18:41.022Z,65.64
2022-08-10T01:22:20.973Z,65.85
2022-08-10T01:26:12.562Z,65.83
2022-08-10T01:29:43.454Z,66.34
2022-08-10T01:33:04.210Z,66.77
2022-08-10T01:36:11.942Z,65.58
2022-08-10T01:39:19.884Z,64.64
2022-08-10T01:42:23.088Z,64.86
2022-08-10T01:45:25.835Z,65.03
2022-08-10T01:48:32.471Z,66.03
2022-08-10T01:51:39.688Z,65.67
2022-08-10T02:03:28.398Z,64.11
2022-08-10T02:06:31.442Z,64.18
2022-08-10T02:09:36.794Z,64.90
2022-08-10T02:12:40.085Z,64.34
2022-08-10T02:16:02.035Z,64.42
2022-08-10T02:19:07.596Z,64.15
2022-08-10T02:22:45.696Z,65.56
2022-08-10T02:25:40.960Z,64.55
2022-08-10T02:28:46.173Z,65.20
2022-08-10T02:31:49.575Z,64.94
2022-08-10T02:34:53.790Z,65.15
2022-08-10T02:38:00.641Z,65.94
2022-08-10T02:42:18.623Z,65.34
2022-08-10T02:45:25.475Z,64.38
2022-08-10T02:48:24.087Z,64.98
2022-08-10T02:52:08.190Z,65.27
2022-08-10T02:55:06.101Z,65.14
2022-08-10T02:58:46.404Z,66.06
2022-08-10T03:01:49.909Z,65.08
2022-08-10T03:04:58.318Z,64.31
2022-08-10T03:08:02.838Z,65.12
2022-08-10T03:11:06.620Z,65.70
2022-08-10T03:14:10.418Z,66.16
2022-08-10T03:17:12.824Z,66.41
2022-08-10T03:20:38.057Z,67.15
2022-08-10T03:23:38.480Z,67.47
2022-08-10T03:26:41.097Z,67.68
2022-08-10T03:30:31.931Z,67.37
2022-08-10T03:33:10.458Z,67.09
2022-08-10T03:36:43.119Z,67.89
2022-08-10T03:39:35.973Z,67.71
2022-08-10T03:42:39.206Z,67.37
2022-08-10T03:45:54.492Z,67.73
2022-08-10T03:49:00.918Z,67.19
2022-08-10T03:52:03.558Z,67.62
2022-08-10T03:55:05.915Z,68.11
2022-08-10T03:58:08.271Z,68.17
2022-08-10T04:01:10.579Z,66.99
2022-08-10T04:04:15.463Z,67.07
2022-08-10T04:07:19.773Z,67.12
2022-08-10T04:10:21.797Z,67.38
2022-08-10T04:13:24.121Z,68.34
2022-08-10T04:16:26.002Z,68.23
2022-08-10T04:19:30.277Z,68.58
2022-08-10T04:22:33.202Z,68.27
2022-08-10T04:25:36.613Z,64.26
2022-08-10T04:28:38.737Z,55.40
2022-08-10T04:31:41.521Z,51.35
2022-08-10T04:34:44.657Z,49.51
2022-08-10T04:37:47.874Z,48.38
2022-08-10T04:40:52.885Z,47.33
2022-08-10T04:43:54.868Z,46.60
2022-08-10T04:46:58.243Z,48.74
2022-08-10T04:50:02.395Z,53.15
2022-08-10T04:53:06.976Z,55.70
2022-08-10T04:56:09.042Z,58.17
2022-08-10T04:59:14.362Z,59.43
2022-08-10T05:02:29.581Z,60.10
2022-08-10T05:05:33.708Z,59.86
2022-08-10T05:08:36.179Z,58.95
2022-08-10T05:11:38.032Z,58.95
2022-08-10T05:14:40.003Z,58.53
2022-08-10T05:18:03.337Z,59.07
2022-08-10T05:21:05.578Z,59.42
2022-08-10T05:24:07.745Z,59.67
2022-08-10T05:27:10.654Z,59.32
2022-08-10T05:30:16.425Z,60.51
2022-08-10T05:33:18.527Z,60.24
2022-08-10T05:36:20.779Z,60.53
2022-08-10T05:39:31.980Z,60.57
2022-08-10T05:42:34.511Z,60.23
2022-08-10T05:46:19.267Z,60.04
2022-08-10T05:49:01.967Z,58.86
2022-08-10T05:52:04.673Z,59.01
2022-08-10T05:55:08.936Z,58.28
2022-08-10T05:58:15.338Z,58.27
2022-08-10T06:01:20.847Z,58.06
2022-08-10T06:04:29.749Z,57.63
2022-08-10T06:07:32.676Z,57.44
2022-08-10T06:10:38.955Z,57.60
2022-08-10T06:14:28.579Z,56.82
2022-08-10T06:17:32.077Z,56.31
2022-08-10T06:20:38.106Z,56.37
2022-08-10T06:23:41.189Z,56.06
2022-08-10T06:26:45.350Z,54.41
2022-08-10T06:29:50.203Z,53.53
2022-08-10T06:32:56.804Z,54.21
2022-08-10T06:36:02.138Z,53.55
2022-08-10T06:39:30.223Z,54.02
2022-08-10T06:42:42.899Z,54.77
2022-08-10T06:46:07.997Z,52.94
2022-08-10T06:49:13.712Z,52.65
2022-08-10T06:52:18.512Z,52.88
2022-08-10T06:55:22.982Z,52.11
2022-08-10T06:58:48.502Z,51.96
2022-08-10T07:01:59.262Z,51.13
2022-08-10T07:05:03.974Z,50.44
2022-08-10T07:08:06.650Z,50.47
2022-08-10T07:11:11.943Z,50.73
2022-08-10T07:14:18.601Z,51.78
2022-08-10T07:17:24.165Z,50.30
2022-08-10T07:20:26.931Z,50.27
2022-08-10T07:23:57.053Z,49.71
2022-08-10T07:26:56.194Z,50.04
2022-08-10T07:29:59.404Z,49.98
2022-08-10T07:33:02.578Z,49.54
2022-08-10T07:36:09.189Z,49.93
2022-08-10T07:39:13.754Z,48.59
2022-08-10T07:42:20.047Z,49.25
2022-08-10T07:45:24.640Z,48.35
2022-08-10T07:48:29.414Z,47.17
2022-08-10T07:51:36.341Z,45.36
2022-08-10T07:54:44.878Z,43.46
2022-08-10T07:57:49.917Z,45.84
2022-08-10T08:00:54.497Z,44.08
2022-08-10T08:04:10.510Z,43.58
2022-08-10T08:07:18.338Z,43.86
2022-08-10T08:10:25.942Z,43.19
2022-08-10T08:13:28.961Z,44.77
2022-08-10T08:16:33.333Z,43.84
2022-08-10T08:19:40.977Z,44.22
2022-08-10T08:24:09.034Z,42.73
2022-08-10T08:26:11.900Z,41.74
2022-08-10T08:29:17.767Z,42.70
2022-08-10T08:32:22.905Z,43.99
2022-08-10T08:35:26.418Z,42.20
2022-08-10T08:38:34.983Z,42.57
2022-08-10T08:42:08.348Z,41.52
2022-08-10T08:46:01.263Z,41.03
2022-08-10T08:50:05.046Z,40.93
2022-08-10T08:54:01.838Z,39.92
2022-08-10T08:57:08.738Z,40.24
2022-08-10T09:00:57.383Z,39.69
2022-08-10T09:04:24.971Z,38.72
2022-08-10T09:08:02.046Z,40.26
2022-08-10T09:11:19.577Z,40.77
2022-08-10T09:14:25.777Z,39.97
2022-08-10T09:17:49.058Z,40.35
2022-08-10T09:21:25.094Z,39.30
2022-08-10T09:24:46.912Z,38.81
2022-08-10T09:27:57.220Z,38.17
2022-08-10T09:31:22.793Z,40.28
2022-08-10T09:36:24.248Z,38.58
2022-08-10T09:38:44.668Z,39.28
2022-08-10T09:41:58.147Z,39.09
2022-08-10T09:45:09.427Z,38.82
2022-08-10T09:48:33.523Z,39.52
2022-08-10T09:51:53.723Z,37.99
2022-08-10T09:54:59.956Z,37.94
2022-08-10T09:58:36.900Z,36.99
2022-08-10T10:02:03.615Z,37.09
2022-08-10T10:05:25.973Z,36.33
2022-08-10T10:08:58.256Z,38.08
2022-08-10T10:12:51.535Z,38.28
2022-08-10T10:16:04.377Z,38.47
2022-08-10T10:19:27.951Z,34.81
2022-08-10T10:22:42.991Z,36.49
2022-08-10T10:26:18.327Z,36.91
2022-08-10T10:29:56.199Z,36.91
2022-08-10T10:33:03.639Z,36.54
2022-08-10T10:36:06.932Z,36.49
2022-08-10T10:39:14.951Z,36.61
2022-08-10T10:42:45.109Z,33.96
2022-08-10T10:46:11.067Z,37.25
2022-08-10T10:49:44.434Z,35.96
2022-08-10T10:53:19.325Z,36.28
2022-08-10T10:56:56.646Z,36.17
2022-08-10T11:00:11.518Z,38.23
2022-08-10T11:03:19.616Z,36.20
2022-08-10T11:06:39.858Z,35.39
2022-08-10T11:10:05.187Z,35.14
2022-08-10T11:14:25.928Z,35.98
2022-08-10T11:17:19.726Z,33.61
2022-08-10T11:20:33.355Z,34.44
2022-08-10T11:24:44.387Z,34.36
2022-08-10T11:27:23.655Z,35.47
2022-08-10T11:30:45.197Z,34.69
2022-08-10T11:34:11.645Z,36.01
2022-08-10T11:37:27.338Z,34.30
2022-08-10T11:40:39.789Z,35.85
2022-08-10T11:43:49.633Z,35.74
2022-08-10T11:46:58.081Z,36.02
2022-08-10T11:50:12.191Z,35.33
2022-08-10T11:53:18.039Z,35.34
2022-08-10T11:56:32.506Z,37.64
2022-08-10T11:59:58.523Z,38.02
2022-08-10T12:03:04.181Z,37.59
2022-08-10T12:06:10.026Z,37.23
2022-08-10T12:10:08.871Z,36.53
2022-08-10T12:12:52.461Z,35.19
2022-08-10T12:16:08.113Z,35.67
2022-08-10T12:19:24.522Z,34.85
2022-08-10T12:23:08.361Z,34.77
2022-08-10T12:26:10.344Z,34.84
2022-08-10T12:29:27.058Z,35.41
2022-08-10T12:33:03.286Z,35.84
2022-08-10T12:36:22.460Z,34.22
2022-08-10T12:39:30.663Z,33.54
2022-08-10T12:42:45.437Z,35.81
2022-08-10T12:46:30.424Z,36.48
2022-08-10T12:50:29.560Z,35.54
2022-08-10T12:53:54.924Z,35.79
2022-08-10T12:57:03.661Z,35.25
2022-08-10T13:00:17.116Z,35.77
2022-08-10T13:04:22.883Z,35.57
2022-08-10T13:06:49.987Z,35.33
2022-08-10T13:09:55.524Z,35.22
2022-08-10T13:12:59.849Z,35.14
2022-08-10T13:16:03.712Z,34.83
2022-08-10T13:19:06.709Z,34.51
2022-08-10T13:22:09.836Z,35.22
2022-08-10T13:25:12.649Z,34.58
2022-08-10T13:28:37.531Z,35.05
2022-08-10T13:32:04.264Z,34.76
2022-08-10T13:35:12.184Z,34.33
2022-08-10T13:38:20.403Z,34.02
2022-08-10T13:41:26.764Z,34.14
2022-08-10T13:44:34.585Z,35.19
2022-08-10T13:47:48.179Z,35.06
2022-08-10T13:50:53.455Z,34.34
2022-08-10T13:53:58.534Z,33.49
2022-08-10T13:57:00.940Z,35.00
2022-08-10T14:00:34.691Z,33.73
2022-08-10T14:03:35.299Z,34.95
2022-08-10T14:06:40.595Z,33.63
2022-08-10T14:09:47.818Z,33.84
2022-08-10T14:12:51.209Z,33.77
2022-08-10T14:15:53.642Z,34.34
2022-08-10T14:18:59.712Z,34.10
2022-08-10T14:22:02.213Z,34.19
2022-08-10T14:25:09.469Z,34.09
2022-08-10T14:28:11.803Z,34.19
2022-08-10T14:31:19.822Z,34.67
2022-08-10T14:36:21.386Z,34.66
2022-08-10T14:37:59.023Z,33.02
2022-08-10T14:41:05.339Z,33.43
2022-08-10T14:44:10.260Z,35.21
2022-08-10T14:47:51.305Z,34.01
2022-08-10T14:50:36.083Z,35.11
2022-08-10T14:53:38.783Z,34.34
2022-08-10T14:56:41.277Z,34.73
2022-08-10T15:00:24.609Z,34.38
2022-08-10T15:03:11.225Z,34.97
2022-08-10T15:06:34.874Z,34.78
2022-08-10T15:10:01.370Z,35.23
2022-08-10T15:13:33.596Z,34.96
2022-08-10T15:16:34.143Z,36.14
2022-08-10T15:20:02.638Z,34.96
2022-08-10T15:23:31.152Z,35.20
2022-08-10T15:26:32.733Z,35.05
2022-08-10T15:29:37.104Z,35.48
2022-08-10T15:33:21.270Z,35.83
2022-08-10T15:37:36.993Z,34.48
2022-08-10T15:40:31.096Z,34.10
2022-08-10T15:43:44.433Z,34.52
2022-08-10T15:47:02.748Z,35.19
2022-08-10T15:50:08.329Z,34.89
2022-08-10T15:53:16.786Z,35.62
2022-08-10T15:56:28.536Z,34.70
2022-08-10T15:59:39.136Z,34.70
2022-08-10T16:02:52.550Z,35.40
2022-08-10T16:06:02.379Z,34.51
2022-08-10T16:10:10.845Z,35.31
2022-08-10T16:12:59.291Z,36.17
2022-08-10T16:16:07.706Z,35.99
2022-08-10T16:19:24.128Z,35.54
2022-08-10T16:22:36.495Z,35.39
2022-08-10T16:25:51.320Z,36.26
2022-08-10T16:29:06.739Z,35.89
2022-08-10T16:32:09.105Z,35.87
2022-08-10T16:35:16.981Z,35.92
2022-08-10T16:38:20.517Z,35.77
2022-08-10T16:42:05.276Z,35.22
2022-08-10T16:44:55.195Z,35.71
2022-08-10T16:47:58.084Z,35.93
2022-08-10T16:51:02.546Z,36.41
2022-08-10T16:54:05.498Z,35.79
2022-08-10T16:57:10.373Z,36.15
2022-08-10T17:00:14.090Z,36.69
2022-08-10T17:03:22.757Z,36.77
2022-08-10T17:07:08.644Z,37.14
2022-08-10T17:10:15.658Z,37.33
2022-08-10T17:17:49.996Z,37.82
2022-08-10T18:03:36.143Z,37.14
2022-08-10T18:06:38.919Z,37.46
2022-08-10T18:09:45.181Z,37.35
2022-08-10T18:12:49.998Z,37.53
2022-08-10T18:15:52.431Z,37.73
2022-08-10T18:19:00.226Z,37.92
2022-08-10T18:22:03.735Z,38.93
2022-08-10T18:25:06.823Z,38.75
2022-08-10T18:28:14.375Z,38.78
2022-08-10T18:31:20.663Z,39.44
2022-08-10T18:34:23.115Z,39.64
2022-08-10T18:37:26.446Z,39.63
2022-08-10T18:40:35.775Z,40.94
2022-08-10T18:44:07.109Z,40.46
2022-08-10T18:47:15.401Z,40.49
2022-08-10T18:50:21.462Z,41.06
2022-08-10T18:53:48.461Z,41.25
2022-08-10T18:56:58.532Z,41.21
2022-08-10T19:00:08.772Z,41.78
2022-08-10T19:03:11.917Z,41.64
2022-08-10T19:06:49.533Z,42.82
2022-08-10T19:09:57.166Z,42.37
2022-08-10T19:13:05.153Z,43.41
2022-08-10T19:26:33.038Z,43.32
2022-08-10T19:30:08.282Z,43.74
2022-08-10T19:33:09.110Z,44.50
2022-08-10T19:36:35.136Z,44.44
2022-08-10T19:39:52.893Z,43.44
2022-08-10T19:42:59.129Z,44.64
2022-08-10T19:46:11.823Z,44.43
2022-08-10T19:49:27.737Z,44.45
2022-08-10T19:52:46.351Z,44.66
2022-08-10T19:55:55.087Z,44.54
2022-08-10T19:59:07.516Z,44.47
2022-08-10T20:02:11.950Z,43.73
2022-08-10T20:05:34.818Z,45.69
2022-08-10T20:08:48.374Z,45.97
2022-08-10T20:12:07.168Z,47.11
2022-08-10T20:15:10.786Z,45.92
2022-08-10T20:18:24.137Z,46.27
2022-08-10T20:21:30.095Z,46.27
2022-08-10T20:24:51.956Z,47.70
2022-08-10T20:28:21.805Z,48.35
2022-08-10T20:31:27.868Z,48.55
2022-08-10T20:34:46.005Z,48.94
2022-08-10T20:38:03.383Z,48.42
2022-08-10T20:41:33.251Z,49.66
2022-08-10T20:45:06.226Z,50.07
2022-08-10T20:48:29.135Z,50.19
2022-08-10T20:51:58.561Z,49.77
2022-08-10T20:55:08.974Z,49.58
2022-08-10T20:58:44.981Z,50.15
2022-08-10T21:02:13.514Z,50.52
2022-08-10T21:05:59.214Z,51.58
2022-08-10T21:09:09.557Z,50.64
2022-08-10T21:12:22.146Z,51.48
2022-08-10T21:15:41.605Z,51.16
2022-08-10T21:19:20.665Z,51.66
2022-08-10T21:22:38.358Z,50.25
2022-08-10T21:25:59.175Z,50.37
2022-08-10T21:29:37.856Z,52.28
2022-08-10T21:33:07.524Z,51.21
2022-08-10T21:36:19.296Z,49.94
2022-08-10T21:39:58.224Z,51.29
2022-08-10T21:43:50.655Z,51.70
2022-08-10T21:47:40.021Z,50.66
2022-08-10T21:51:05.965Z,51.20
2022-08-10T21:54:46.904Z,52.34
2022-08-10T21:58:34.748Z,53.74
2022-08-10T22:05:51.481Z,52.91
2022-08-10T22:09:18.347Z,52.20
2022-08-10T22:12:46.782Z,52.60
2022-08-10T22:16:17.147Z,52.34
2022-08-10T22:19:38.274Z,51.81
2022-08-10T22:23:19.215Z,52.01
2022-08-10T22:27:01.248Z,54.02
2022-08-10T22:30:25.099Z,52.65
2022-08-10T22:34:10.563Z,53.39
2022-08-10T22:37:53.146Z,52.31
2022-08-10T22:41:21.141Z,54.02
2022-08-10T22:44:42.655Z,53.43
2022-08-10T22:48:03.120Z,53.33
2022-08-10T22:51:08.826Z,53.59
2022-08-10T22:54:41.980Z,53.60
2022-08-10T22:58:06.309Z,53.68
2022-08-10T23:02:08.105Z,55.09
2022-08-10T23:05:08.742Z,53.68
2022-08-10T23:09:03.612Z,55.59
2022-08-10T23:12:11.353Z,55.28
2022-08-10T23:15:59.418Z,55.51
2022-08-10T23:19:17.326Z,55.64
2022-08-10T23:22:29.487Z,54.14
2022-08-10T23:25:33.265Z,54.80
2022-08-10T23:28:38.769Z,54.82
2022-08-10T23:32:06.518Z,54.09
2022-08-10T23:36:05.514Z,55.95
2022-08-10T23:38:35.801Z,55.70
2022-08-10T23:41:38.638Z,55.09
2022-08-10T23:44:46.666Z,56.83
2022-08-10T23:47:51.865Z,57.30
2022-08-10T23:51:03.082Z,57.69
2022-08-10T23:54:19.067Z,57.93
2022-08-10T23:57:23.574Z,57.53
